11:25
Airports
History
Links
Donate
Help keep this website running!
PayPal
Bitcoin
This page is community maintained. The information is intended for PC simulator navigation or reference.
Always use approved charts for navigation.
VT41
Moores Field
Moores Field (VT41)
Dummerston, Vermont, United States (5346)
4
Lat/Lng:42° 55' 27.29" N / 72° 31' 47.32" W
42.924248 / -72.529812
Elevation:310'ft / 94mMSL
ID / ICAO:VT41
Runways:1
Longest:03-21
Grass 547m / 1,795ft
Nearby Weather10:56 GMT 2018-01-23
Nearby weather at KEEN, Dillant-hopkins located 13.2 nautical miles from VT41
Altimeter: 29.93
Visibility: 4.0 statute miles
Wind: 4 knots (from 320°)
Temp: -1°c / 30°f
Humidity: 100.0%

METAR: KEEN 231056Z AUTO 32004KT 4SM UP BR OVC005 M01/M01 A2993 RMK AO2 UPB27 CIG 003V008 SLP155 P0000 T10061011 FZRANO

(Powered by phpweather)
Nearby VORs <50NM
Nearby NDBs
Runway 03 / 21
Dimensions:547.2 x 24.4m 1795' x 80'ft
Surface:Grass
Runway 03 [A]Runway 21 [B]
Heading:015°TH 195°TH
Lat:
Lng:
42° 55' 18.71"N
72° 31' 50.46"W
42° 55' 35.88"N
72° 31' 44.18"W
User Notes and Comments
42° 55' 27.29" N / 72° 31' 47.32" W
Distance To
Airport ID:
Nearby Airports
4 Santas 6.2 NM
VT06 NNE 27°
(R) Onyon 9.0 NM
VT43 NW 316°
(R) Frank D. Comerford 9.1 NM
NH39 NNE 33°
(R) Major W. Guth 9.6 NM
VT34 N 11°
4 Blodgett 11.7 NM
VT47 SSE 167°
(U) Dillant-hopkins 13.2 NM
KEEN ( WX ) E 97°
(U) Deerfield Valley Rgnl 17.0 NM
4V8 W 270°
VFR Chart
Flight Planning at SkyVector.com